• Join FlightAware (Why Join?)
  • Login
  • US Flag 
03:22AM EST


 

Airport Tracker/Info


-or-


 

Live Flight TrackerFlight Track Log ✈ N143DE ✈ 28-Jun-2013 ✈ KRYY - KTBR

Flight Track Log - Related Links

Times and Time Zones

All times are in EDT time to prevent confusion due to time zone crossing. See the N143DE flight status page for this flight to view local times or setup timezone preferences in your user account.

Time Position Orientation Groundspeed Altitude Reporting Facility
EDT Latitude Longitude Course Direction KTS MPH feet Rate Location/Type
10:36AM 34.0000 -84.6500 163° South 134 154 3,600  Level Atlanta TRACON
10:37AM 33.9667 -84.6667 203° Southwest 199 229 4,100 120 Climbing Atlanta TRACON
10:38AM 33.9000 -84.7000 203° Southwest 217 250 3,900 -120 Descending Atlanta TRACON
10:39AM 33.8500 -84.7167 195° South 213 245 3,900  Level Atlanta TRACON
10:40AM 33.8000 -84.7500 209° Southwest 216 249 4,000  Climbing Atlanta TRACON
10:41AM 33.7500 -84.7667 195° South 228 262 4,000  Level Atlanta TRACON
10:42AM 33.8125 -84.2092 163° South  Level Estimated
10:42AM 33.6833 -84.7667 180° South 231 266 4,000  Level Atlanta TRACON
10:43AM 33.6167 -84.7500 168° South 253 291 4,000  Level Atlanta TRACON
10:44AM 33.5333 -84.7500 180° South 263 303 4,000  Level Atlanta TRACON
10:45AM 33.4833 -84.7167 151° Southeast 272 313 4,000 1,020 Level Atlanta TRACON
10:46AM 33.4167 -84.6667 148° Southeast 215 247 6,000 900 Climbing Atlanta TRACON
10:47AM 33.3608 -84.6108 140° Southeast 256 295 6,000 4,080 Level Atlanta Center
10:49AM 33.2569 -84.5033 139° Southeast 261 300 19,000 4,320 Climbing Atlanta Center
10:50AM 33.2153 -84.4608 140° Southeast 217 250 19,000  Level Atlanta Center
10:51AM 33.1614 -84.4061 140° Southeast 230 265 19,000  Level Atlanta Center
10:52AM 33.1050 -84.3489 140° Southeast 260 299 19,000  Level Atlanta Center
10:53AM 33.0633 -84.2942 132° Southeast 241 277 19,000 -4,020 Level Atlanta Center
10:54AM 33.0197 -84.2319 130° Southeast 229 264 11,000 -3,960 Descending Atlanta Center
10:55AM 32.9781 -84.1578 124° Southeast 254 292 11,100 3,960 Climbing Atlanta Center
10:56AM 32.9467 -84.1031 124° Southeast 239 275 19,000 1,860 Climbing Atlanta Center
10:57AM 32.9175 -84.0486 123° Southeast 215 247 14,900 -1,500 Descending Atlanta Center
10:58AM 32.8925 -83.9992 121° Southeast 201 231 16,000 1,200 Climbing Atlanta Center
10:59AM 32.8633 -83.9522 126° Southeast 191 220 17,300 1,260 Climbing Atlanta Center
11:00AM 32.8361 -83.9003 122° Southeast 186 214 18,600 840 Climbing Atlanta Center
11:01AM 32.8047 -83.8486 126° Southeast 186 214 19,000 240 Climbing Atlanta Center
11:02AM 32.7628 -83.7869 129° Southeast 209 241 19,100  Climbing Atlanta Center
11:03AM 32.7250 -83.7178 123° Southeast 237 273 19,100 -60 Level Atlanta Center
11:04AM 32.6853 -83.6464 123° Southeast 249 287 19,000 -60 Descending Atlanta Center
11:05AM 32.6619 -83.5675 109° East 255 293 19,000  Level Atlanta Center
11:06AM 32.6511 -83.4839 99° East 255 293 19,000  Level Atlanta Center
11:07AM 32.6403 -83.3975 98° East 255 293 19,000  Level Atlanta Center
11:08AM 32.6275 -83.3136 100° East 260 299 19,000 -60 Level Atlanta Center
11:09AM 32.6206 -83.2300 96° East 255 293 18,900 -660 Descending Atlanta Center
11:10AM 32.6178 -83.1386 92° East 260 299 17,700 -1,200 Descending Atlanta Center
11:11AM 32.6006 -83.0525 103° East 267 307 16,500 -1,320 Descending Atlanta Center
11:12AM 32.5664 -82.9692 116° Southeast 267 307 15,100 -1,260 Descending Atlanta Center
11:13AM 32.5386 -82.8833 111° Southeast 267 307 14,000 -1,140 Descending Atlanta Center
11:14AM 32.5064 -82.8025 115° Southeast 267 307 12,900 -1,200 Descending Atlanta Center
11:15AM 32.4908 -82.7239 103° East 267 307 11,700 -960 Descending Atlanta Center
11:16AM 32.4900 -82.6378 91° East 261 300 11,000 -660 Descending Atlanta Center
11:17AM 32.4931 -82.5464 88° East 249 287 10,400 -1,020 Descending Atlanta Center
11:18AM 32.4900 -82.4678 93° East 249 287 9,000 -1,500 Descending Atlanta Center
11:19AM 32.4908 -82.3767 89° East 254 292 7,500 -1,320 Descending Atlanta Center
11:21AM 32.4925 -82.2128 89° East 270 311 5,200 -1,260 Descending Jacksonville Center
11:22AM 32.4919 -82.1267 90° East 270 311 4,000 -600 Descending Jacksonville Center
11:23AM 32.4894 -82.0478 92° East 260 299 4,000 -240 Level Jacksonville Center
11:24AM 32.4847 -81.9667 94° East 232 267 3,600 -540 Descending Jacksonville Center
11:25AM 32.4819 -81.8903 92° East 227 261 3,000 -600 Descending Jacksonville Center